Time;durP1;ratioP1;P1;durP2;ratioP2;P2;SDS_P1;SDS_P2;PMS_P1;PMS_P2;Temp;Humidity;BMP_temperature;BMP_pressure;BME280_temperature;BME280_humidity;BME280_pressure;Samples;Min_cycle;Max_cycle;Signal;HPM_P1;HPM_P2
2022/01/22 00:00:25;;;;;;;1.50;0.77;;;1.40;99.90;;;;;;5065243;28;20224;-60
2022/01/22 00:02:52;;;;;;;0.53;0.53;;;1.50;99.90;;;;;;5067933;28;20208;-62
2022/01/22 00:05:20;;;;;;;1.80;0.73;;;1.50;99.90;;;;;;5064101;28;20193;-59
2022/01/22 00:07:46;;;;;;;0.47;0.47;;;1.40;99.90;;;;;;5067332;28;20284;-59
2022/01/22 00:10:14;;;;;;;0.27;0.27;;;1.40;99.90;;;;;;5064971;28;20281;-60
2022/01/22 00:14:23;;;;;;;0.40;0.40;;;1.40;99.90;;;;;;5066107;28;20246;-60
2022/01/22 00:15:32;;;;;;;0.53;0.53;;;1.50;99.90;;;;;;5082314;28;20186;-59
2022/01/22 00:17:58;;;;;;;0.90;0.90;;;1.50;99.90;;;;;;5067493;28;20201;-59
2022/01/22 00:20:26;;;;;;;0.67;0.67;;;1.50;99.90;;;;;;5070249;28;20196;-61
2022/01/22 00:22:53;;;;;;;1.70;1.60;;;1.50;99.90;;;;;;5066452;28;20194;-60
2022/01/22 00:25:21;;;;;;;0.80;0.80;;;1.50;99.90;;;;;;5070263;28;20309;-60
2022/01/22 00:27:48;;;;;;;0.53;0.53;;;1.50;99.90;;;;;;5067861;28;20189;-62
2022/01/22 00:30:18;;;;;;;0.40;0.40;;;1.60;99.90;;;;;;5068148;28;20198;-58
2022/01/22 00:32:45;;;;;;;1.07;0.97;;;1.50;99.90;;;;;;5069630;28;20185;-60
2022/01/22 00:35:11;;;;;;;1.70;0.73;;;1.50;99.90;;;;;;5067355;28;20205;-59
2022/01/22 00:37:40;;;;;;;0.83;0.83;;;1.50;99.90;;;;;;5069944;28;20186;-59
2022/01/22 00:40:06;;;;;;;0.13;0.13;;;1.60;99.90;;;;;;5066374;28;20226;-61
2022/01/22 00:42:33;;;;;;;0.33;0.33;;;1.50;99.90;;;;;;5070039;28;20214;-59
2022/01/22 00:44:59;;;;;;;3.37;0.70;;;1.50;99.90;;;;;;5067146;28;20219;-61
2022/01/22 00:47:25;;;;;;;0.53;0.53;;;1.50;99.90;;;;;;5068985;28;20189;-61
2022/01/22 00:49:51;;;;;;;0.50;0.50;;;1.60;99.90;;;;;;5068658;28;20221;-61
2022/01/22 00:52:18;;;;;;;0.60;0.60;;;1.50;99.90;;;;;;5067299;28;20198;-60
2022/01/22 00:54:43;;;;;;;1.53;0.80;;;1.60;99.90;;;;;;5069280;28;20189;-59
2022/01/22 00:57:09;;;;;;;0.33;0.33;;;1.60;99.90;;;;;;5066322;28;20185;-60
2022/01/22 00:59:35;;;;;;;0.60;0.60;;;1.60;99.90;;;;;;5069677;28;20186;-59
2022/01/22 01:02:02;;;;;;;0.27;0.27;;;1.60;99.90;;;;;;5066565;28;20225;-61
2022/01/22 01:04:29;;;;;;;0.40;0.40;;;1.60;99.90;;;;;;5069385;28;20197;-59
2022/01/22 01:06:55;;;;;;;0.50;0.50;;;1.60;99.90;;;;;;5067846;28;20186;-63
2022/01/22 01:09:21;;;;;;;0.40;0.40;;;1.60;99.90;;;;;;5067272;28;20235;-58
2022/01/22 01:11:52;;;;;;;0.70;0.70;;;1.60;99.90;;;;;;5068234;28;20185;-60
2022/01/22 01:14:26;;;;;;;0.60;0.60;;;1.60;99.90;;;;;;5066171;28;20173;-60
2022/01/22 01:33:29;;;;;;;0.67;0.67;;;1.70;99.90;;;;;;5085298;28;20213;-61
2022/01/22 01:35:55;;;;;;;0.60;0.60;;;1.70;99.90;;;;;;5065987;28;20192;-60
2022/01/22 01:38:22;;;;;;;0.70;0.70;;;1.70;99.90;;;;;;5068411;28;20221;-61
2022/01/22 01:40:59;;;;;;;0.70;0.70;;;1.70;99.90;;;;;;5064559;28;20190;-62
2022/01/22 01:43:31;;;;;;;0.33;0.33;;;1.70;99.90;;;;;;5067878;28;20189;-59
2022/01/22 01:45:57;;;;;;;0.53;0.53;;;1.70;99.90;;;;;;5067360;28;20268;-59
2022/01/22 01:48:27;;;;;;;0.90;0.90;;;1.70;99.90;;;;;;5066382;28;20272;-61
2022/01/22 01:50:56;;;;;;;0.30;0.30;;;1.80;99.90;;;;;;5068265;28;20178;-62
2022/01/22 01:58:23;;;;;;;0.90;0.90;;;1.80;99.90;;;;;;5082338;28;20188;-61
2022/01/22 02:00:49;;;;;;;0.50;0.50;;;1.90;99.90;;;;;;5067643;28;20188;-62
2022/01/22 02:03:15;;;;;;;0.63;0.63;;;1.90;99.90;;;;;;5066931;28;20276;-59
2022/01/22 02:05:41;;;;;;;0.70;0.47;;;1.90;99.90;;;;;;5066557;28;20281;-60
2022/01/22 02:08:12;;;;;;;0.90;0.90;;;1.90;99.90;;;;;;5067426;28;20208;-59
2022/01/22 02:10:44;;;;;;;0.90;0.70;;;1.90;99.90;;;;;;5065400;28;20193;-60
2022/01/22 02:24:02;;;;;;;1.13;1.13;;;1.90;99.90;;;;;;5080964;28;20239;-58
2022/01/22 02:26:29;;;;;;;1.03;0.70;;;1.90;99.90;;;;;;5067980;28;20189;-56
2022/01/22 02:28:56;;;;;;;0.30;0.30;;;2.00;99.90;;;;;;5065269;28;20194;-61
2022/01/22 02:36:35;;;;;;;0.60;0.60;;;2.00;99.90;;;;;;5081581;28;20197;-55
2022/01/22 02:41:30;;;;;;;0.70;0.70;;;2.00;99.90;;;;;;5081268;28;20229;-59
2022/01/22 02:43:57;;;;;;;0.67;0.67;;;2.00;99.90;;;;;;5067537;28;20610;-59
2022/01/22 02:46:24;;;;;;;0.80;0.80;;;2.00;99.90;;;;;;5065509;28;20247;-58
2022/01/22 02:48:54;;;;;;;0.60;0.60;;;2.00;99.90;;;;;;5065607;28;20197;-59
2022/01/22 02:51:23;;;;;;;0.67;0.67;;;2.00;99.90;;;;;;5066901;28;20277;-60
2022/01/22 02:53:50;;;;;;;1.40;1.40;;;2.00;99.90;;;;;;5065462;28;20578;-57
2022/01/22 02:56:17;;;;;;;0.63;0.63;;;2.10;99.90;;;;;;5067035;28;20235;-54
2022/01/22 02:58:42;;;;;;;2.00;1.27;;;2.10;99.90;;;;;;5064686;28;20262;-58
2022/01/22 03:01:08;;;;;;;1.03;1.03;;;2.10;99.90;;;;;;5067236;28;20221;-57
2022/01/22 03:03:37;;;;;;;0.43;0.43;;;2.10;99.90;;;;;;5066191;28;20207;-59
2022/01/22 03:06:03;;;;;;;0.60;0.60;;;2.10;99.90;;;;;;5066141;28;20198;-52
2022/01/22 03:08:31;;;;;;;0.80;0.80;;;2.10;99.90;;;;;;5066576;28;20219;-58
2022/01/22 03:11:06;;;;;;;0.80;0.80;;;2.10;99.90;;;;;;5064526;28;20283;-57
2022/01/22 03:16:28;;;;;;;0.93;0.93;;;2.10;99.90;;;;;;5081174;28;20197;-59
2022/01/22 03:19:10;;;;;;;0.60;0.60;;;2.10;99.90;;;;;;5066250;28;20204;-52
2022/01/22 03:21:42;;;;;;;0.70;0.70;;;2.20;99.90;;;;;;5066121;28;20247;-52
2022/01/22 03:29:40;;;;;;;0.53;0.50;;;2.10;99.90;;;;;;5081250;28;20247;-54
2022/01/22 03:32:13;;;;;;;0.50;0.50;;;2.10;99.90;;;;;;5066004;28;20210;-57
2022/01/22 03:34:56;;;;;;;1.03;0.60;;;2.10;99.90;;;;;;5066334;28;20202;-59
2022/01/22 03:37:25;;;;;;;0.90;0.90;;;2.10;99.90;;;;;;5063497;28;20293;-56
2022/01/22 03:39:52;;;;;;;0.60;0.60;;;2.10;99.90;;;;;;5066784;28;20248;-55
2022/01/22 03:42:17;;;;;;;0.60;0.60;;;2.00;99.90;;;;;;5063740;28;20307;-59
2022/01/22 03:44:43;;;;;;;1.13;1.00;;;2.00;99.90;;;;;;5083393;28;20189;-55
2022/01/22 03:47:09;;;;;;;0.60;0.60;;;2.00;99.90;;;;;;5065137;28;20290;-55
2022/01/22 03:49:35;;;;;;;0.50;0.50;;;2.00;99.90;;;;;;5065451;28;20182;-55
2022/01/22 03:52:01;;;;;;;0.77;0.77;;;2.00;99.90;;;;;;5069329;28;20193;-57
2022/01/22 03:54:27;;;;;;;1.27;0.90;;;2.00;99.90;;;;;;5068249;28;20188;-54
2022/01/22 03:56:53;;;;;;;1.03;0.93;;;2.00;99.90;;;;;;5070139;28;20182;-60
2022/01/22 03:59:19;;;;;;;0.70;0.70;;;2.00;99.90;;;;;;5067345;28;20247;-59
2022/01/22 04:04:21;;;;;;;1.00;1.00;;;2.00;99.90;;;;;;5085040;28;20200;-60
2022/01/22 04:09:37;;;;;;;0.97;0.97;;;2.10;99.90;;;;;;5086671;28;20189;-58
2022/01/22 04:12:03;;;;;;;0.80;0.80;;;2.10;99.90;;;;;;5067039;28;20182;-53
2022/01/22 04:14:34;;;;;;;1.80;1.47;;;2.10;99.90;;;;;;5070306;28;20249;-55
2022/01/22 04:25:50;;;;;;;1.20;1.17;;;2.10;99.90;;;;;;5043522;28;20202;-58
2022/01/22 04:28:34;;;;;;;1.60;1.50;;;2.20;99.90;;;;;;5084904;28;20281;-55
2022/01/22 04:31:00;;;;;;;1.40;1.30;;;2.10;99.90;;;;;;5069164;28;20288;-58
2022/01/22 04:33:45;;;;;;;2.90;1.73;;;2.20;99.90;;;;;;5084514;28;20201;-55
2022/01/22 04:36:31;;;;;;;1.87;1.77;;;2.20;99.90;;;;;;5087115;28;20217;-55
2022/01/22 04:39:19;;;;;;;1.20;1.20;;;2.30;99.90;;;;;;5085280;28;20267;-54
2022/01/22 04:42:04;;;;;;;1.07;1.07;;;2.30;99.90;;;;;;5084125;28;20263;-55
2022/01/22 04:45:07;;;;;;;1.20;1.10;;;2.30;99.90;;;;;;5087167;28;20201;-57
2022/01/22 04:57:08;;;;;;;2.13;2.00;;;2.30;99.90;;;;;;5086605;28;20251;-56
2022/01/22 04:59:53;;;;;;;1.23;1.13;;;2.40;99.90;;;;;;5083473;28;20251;-59
2022/01/22 05:02:39;;;;;;;3.17;2.77;;;2.40;99.90;;;;;;5085896;28;20224;-53
2022/01/22 05:05:23;;;;;;;1.23;1.23;;;2.40;99.90;;;;;;5085506;28;20216;-57
2022/01/22 05:08:08;;;;;;;1.20;1.07;;;2.40;99.90;;;;;;5084078;28;20268;-59
2022/01/22 05:10:52;;;;;;;1.00;0.97;;;2.30;99.90;;;;;;5086451;28;20200;-53
2022/01/22 05:13:36;;;;;;;1.70;1.13;;;2.40;99.90;;;;;;5084271;28;20231;-59
2022/01/22 05:16:21;;;;;;;1.10;1.10;;;2.40;99.90;;;;;;5083576;28;20224;-53
2022/01/22 05:19:14;;;;;;;1.53;1.30;;;2.40;99.90;;;;;;5085914;28;20240;-54
2022/01/22 05:22:08;;;;;;;1.47;1.27;;;2.40;99.90;;;;;;5082641;28;20225;-58
2022/01/22 05:24:59;;;;;;;1.20;1.10;;;2.40;99.90;;;;;;5083841;28;20196;-50
2022/01/22 05:28:00;;;;;;;1.43;1.33;;;2.40;99.90;;;;;;5086079;28;20197;-56
2022/01/22 05:39:37;;;;;;;1.77;1.67;;;2.50;99.90;;;;;;5084702;28;20233;-59
2022/01/22 05:42:23;;;;;;;2.60;1.17;;;2.50;99.90;;;;;;5082930;28;20228;-54
2022/01/22 05:45:08;;;;;;;1.60;1.50;;;2.50;99.90;;;;;;5085118;28;20196;-56
2022/01/22 05:47:53;;;;;;;1.90;1.30;;;2.50;99.90;;;;;;5083205;28;20185;-57
2022/01/22 05:53:43;;;;;;;0.90;0.90;;;2.60;99.90;;;;;;5086549;28;20200;-57
2022/01/22 05:59:38;;;;;;;1.97;1.47;;;2.60;99.90;;;;;;5084442;28;20240;-52
2022/01/22 06:02:23;;;;;;;0.37;0.37;;;2.60;99.90;;;;;;5084797;28;20236;-54
2022/01/22 06:05:07;;;;;;;0.93;0.90;;;2.60;99.90;;;;;;5082891;28;20197;-59
2022/01/22 06:07:53;;;;;;;1.00;0.90;;;2.60;99.90;;;;;;5084165;28;20200;-57
2022/01/22 06:10:39;;;;;;;1.37;1.33;;;2.60;99.90;;;;;;5085158;28;20220;-58
2022/01/22 06:13:30;;;;;;;1.03;1.00;;;2.60;99.90;;;;;;5081811;28;20193;-57
2022/01/22 06:16:17;;;;;;;0.97;0.90;;;2.70;99.90;;;;;;5084531;28;20197;-52
2022/01/22 06:19:01;;;;;;;1.30;1.20;;;2.60;99.90;;;;;;5084236;28;20264;-56
2022/01/22 06:21:45;;;;;;;1.77;1.67;;;2.70;99.90;;;;;;5082381;28;20239;-55
2022/01/22 06:24:31;;;;;;;1.13;0.87;;;2.70;99.90;;;;;;5085031;28;20270;-56
2022/01/22 06:27:15;;;;;;;1.53;1.03;;;2.70;99.90;;;;;;5082752;28;20253;-57
2022/01/22 06:30:00;;;;;;;1.97;1.23;;;2.70;99.90;;;;;;5082415;28;20221;-57
2022/01/22 06:32:46;;;;;;;1.23;1.10;;;2.70;99.90;;;;;;5085674;28;20205;-56
2022/01/22 06:35:30;;;;;;;1.73;1.50;;;2.70;99.90;;;;;;5082086;28;20197;-57
2022/01/22 06:38:17;;;;;;;1.20;1.10;;;2.70;99.90;;;;;;5083161;28;20228;-54
2022/01/22 06:44:06;;;;;;;0.83;0.83;;;2.70;99.90;;;;;;5082868;28;20200;-57
2022/01/22 06:46:54;;;;;;;1.13;1.03;;;2.70;99.90;;;;;;5083529;28;20201;-45
2022/01/22 06:49:39;;;;;;;0.93;0.93;;;2.70;99.90;;;;;;5084187;28;20192;-55
2022/01/22 06:52:25;;;;;;;0.97;0.97;;;2.70;99.90;;;;;;5080934;28;20229;-55
2022/01/22 06:55:12;;;;;;;1.43;0.90;;;2.80;99.90;;;;;;5084197;28;20228;-52
2022/01/22 06:57:57;;;;;;;1.60;1.50;;;2.80;99.90;;;;;;5083471;28;20196;-54
2022/01/22 07:00:42;;;;;;;1.27;1.17;;;2.80;99.90;;;;;;5081651;28;20200;-54
2022/01/22 07:03:26;;;;;;;1.37;1.27;;;2.80;99.90;;;;;;5085188;28;20258;-51
2022/01/22 07:06:10;;;;;;;1.53;1.43;;;2.80;99.90;;;;;;5082608;28;20193;-55
2022/01/22 07:08:55;;;;;;;0.63;0.63;;;2.80;99.90;;;;;;5082430;28;20196;-48
2022/01/22 07:11:40;;;;;;;3.20;1.27;;;2.80;99.90;;;;;;5083448;28;20234;-50
2022/01/22 07:14:26;;;;;;;1.03;0.97;;;2.80;99.90;;;;;;5081331;28;20185;-58
2022/01/22 07:17:11;;;;;;;0.87;0.87;;;2.80;99.90;;;;;;5082941;28;20220;-49
2022/01/22 07:19:56;;;;;;;1.03;1.03;;;2.80;99.90;;;;;;5083161;28;20220;-54
2022/01/22 07:22:50;;;;;;;0.87;0.87;;;2.80;99.90;;;;;;5080542;28;20543;-52
2022/01/22 07:25:36;;;;;;;0.83;0.67;;;2.90;99.90;;;;;;5085161;28;20192;-53
2022/01/22 07:28:22;;;;;;;2.60;1.27;;;2.90;99.90;;;;;;5087195;28;20258;-58
2022/01/22 07:31:09;;;;;;;0.80;0.80;;;2.90;99.90;;;;;;5084981;28;20191;-56
2022/01/22 07:33:53;;;;;;;1.23;1.20;;;2.90;99.90;;;;;;5089120;28;20287;-58
2022/01/22 07:36:39;;;;;;;1.30;1.30;;;2.90;99.90;;;;;;5086432;28;20281;-55
2022/01/22 07:39:23;;;;;;;0.93;0.93;;;2.90;99.90;;;;;;5084790;28;20282;-52
2022/01/22 07:42:08;;;;;;;0.50;0.47;;;2.90;99.90;;;;;;5087782;28;20315;-53
2022/01/22 07:44:53;;;;;;;1.30;1.27;;;3.00;99.90;;;;;;5085448;28;20239;-54
2022/01/22 07:47:38;;;;;;;1.37;1.27;;;3.00;99.90;;;;;;5086297;28;20350;-54
2022/01/22 07:50:23;;;;;;;1.27;1.20;;;3.00;99.90;;;;;;5087752;28;20250;-51
2022/01/22 07:53:07;;;;;;;1.37;1.37;;;3.10;99.90;;;;;;5084710;28;20211;-52
2022/01/22 07:55:52;;;;;;;1.47;1.37;;;3.00;99.90;;;;;;5087450;28;20269;-56
2022/01/22 07:58:37;;;;;;;2.57;1.80;;;3.10;99.90;;;;;;5087044;28;20212;-52
2022/01/22 08:01:21;;;;;;;0.87;0.87;;;3.10;99.90;;;;;;5084886;28;20216;-56
2022/01/22 08:04:07;;;;;;;1.10;1.10;;;3.10;99.90;;;;;;5088133;28;20775;-57
2022/01/22 08:06:52;;;;;;;3.00;1.73;;;3.10;99.90;;;;;;5085673;28;20224;-54
2022/01/22 08:09:37;;;;;;;1.00;1.00;;;3.10;99.90;;;;;;5084765;28;20197;-49
2022/01/22 08:12:21;;;;;;;1.40;1.40;;;3.10;99.90;;;;;;5086959;28;20192;-56
2022/01/22 08:15:08;;;;;;;0.60;0.60;;;3.10;99.90;;;;;;5084492;28;20209;-58
2022/01/22 08:17:52;;;;;;;1.53;1.20;;;3.10;99.90;;;;;;5085732;28;21322;-54
2022/01/22 08:20:37;;;;;;;1.63;1.53;;;3.10;99.90;;;;;;5086326;28;20200;-53
2022/01/22 08:23:23;;;;;;;1.50;1.40;;;3.10;99.90;;;;;;5083953;28;20216;-51
2022/01/22 08:26:10;;;;;;;2.43;1.10;;;3.10;99.90;;;;;;5087234;28;20189;-50
2022/01/22 08:28:54;;;;;;;0.60;0.60;;;3.10;99.90;;;;;;5085955;28;20226;-54
2022/01/22 08:32:03;;;;;;;0.97;0.97;;;3.10;99.90;;;;;;5084225;28;20239;-53
2022/01/22 08:37:52;;;;;;;1.00;0.77;;;3.20;99.90;;;;;;5086155;28;20254;-49
2022/01/22 08:40:36;;;;;;;1.87;1.47;;;3.20;99.90;;;;;;5083601;28;20242;-55
2022/01/22 08:43:22;;;;;;;0.80;0.80;;;3.20;99.90;;;;;;5086960;28;20240;-56
2022/01/22 08:46:07;;;;;;;1.53;1.43;;;3.20;99.90;;;;;;5085418;28;20232;-55
2022/01/22 08:48:52;;;;;;;1.10;1.03;;;3.20;99.90;;;;;;5083801;28;20274;-56
2022/01/22 08:51:38;;;;;;;1.13;1.03;;;3.20;99.90;;;;;;5086857;28;20335;-55
2022/01/22 08:54:23;;;;;;;0.63;0.63;;;3.20;99.90;;;;;;5084120;28;20189;-49
2022/01/22 08:57:08;;;;;;;1.13;1.10;;;3.30;99.90;;;;;;5084074;28;20197;-52
2022/01/22 08:59:52;;;;;;;1.67;1.57;;;3.20;99.90;;;;;;5086345;28;20280;-57
2022/01/22 09:02:36;;;;;;;1.10;1.10;;;3.20;99.90;;;;;;5083298;28;20216;-57
2022/01/22 09:05:25;;;;;;;0.87;0.67;;;3.30;99.90;;;;;;5085372;28;20297;-54
2022/01/22 09:08:14;;;;;;;1.57;1.57;;;3.30;99.90;;;;;;5085513;28;20209;-58
2022/01/22 09:10:58;;;;;;;1.57;1.50;;;3.40;99.90;;;;;;5083550;28;20278;-52
2022/01/22 09:13:43;;;;;;;0.87;0.87;;;3.30;99.90;;;;;;5085947;28;20193;-53
2022/01/22 09:16:27;;;;;;;0.77;0.77;;;3.40;99.90;;;;;;5085309;28;20189;-55
2022/01/22 09:19:12;;;;;;;1.67;1.57;;;3.40;99.90;;;;;;5083717;28;20196;-56
2022/01/22 09:21:58;;;;;;;0.97;0.97;;;3.40;99.90;;;;;;5086184;28;20244;-58
2022/01/22 09:24:42;;;;;;;1.00;1.00;;;3.40;99.90;;;;;;5083715;28;20200;-58
2022/01/22 09:27:29;;;;;;;0.80;0.80;;;3.50;99.90;;;;;;5083638;28;20233;-54
2022/01/22 09:30:15;;;;;;;0.40;0.40;;;3.50;99.90;;;;;;5085373;28;20193;-57
2022/01/22 09:33:00;;;;;;;0.67;0.67;;;3.70;99.90;;;;;;5083567;28;20247;-56
2022/01/22 09:35:45;;;;;;;1.50;1.40;;;3.70;99.90;;;;;;5084364;28;20243;-52
2022/01/22 09:38:30;;;;;;;1.37;1.33;;;3.60;99.90;;;;;;5084469;28;20228;-58
2022/01/22 09:41:15;;;;;;;0.80;0.80;;;3.60;99.90;;;;;;5082450;28;20228;-56
2022/01/22 09:43:59;;;;;;;0.70;0.70;;;3.60;99.90;;;;;;5085731;28;20197;-58
2022/01/22 09:46:46;;;;;;;0.90;0.90;;;3.50;99.90;;;;;;5084514;28;20200;-60
2022/01/22 09:49:31;;;;;;;0.60;0.60;;;3.60;99.90;;;;;;5082582;28;20302;-57
2022/01/22 09:52:16;;;;;;;1.17;0.93;;;3.70;99.90;;;;;;5085455;28;20193;-54
2022/01/22 09:55:01;;;;;;;0.33;0.33;;;3.70;99.90;;;;;;5083020;28;20288;-55
2022/01/22 09:57:47;;;;;;;1.03;1.00;;;3.70;99.90;;;;;;5083008;28;20245;-51
2022/01/22 10:00:31;;;;;;;2.17;1.37;;;3.70;99.90;;;;;;5085035;28;20193;-57
2022/01/22 10:03:18;;;;;;;1.13;1.03;;;3.70;99.90;;;;;;5082804;28;20232;-57
2022/01/22 10:06:16;;;;;;;1.17;1.17;;;3.80;99.90;;;;;;5083704;28;20193;-54
2022/01/22 10:09:25;;;;;;;1.10;1.00;;;3.70;99.90;;;;;;5084839;28;20208;-58
2022/01/22 10:12:20;;;;;;;0.50;0.50;;;3.70;99.90;;;;;;5083028;28;20659;-57
2022/01/22 10:15:17;;;;;;;1.13;1.13;;;3.70;99.90;;;;;;5084035;28;20216;-53
2022/01/22 10:17:56;;;;;;;1.20;1.20;;;3.60;99.90;;;;;;5068093;28;20201;-50
2022/01/22 10:20:41;;;;;;;0.87;0.87;;;3.60;99.90;;;;;;5082885;28;20215;-58
2022/01/22 10:23:26;;;;;;;1.73;1.40;;;3.70;99.90;;;;;;5084341;28;20516;-54
2022/01/22 10:26:13;;;;;;;0.73;0.70;;;3.60;99.90;;;;;;5084814;28;20200;-57
2022/01/22 10:29:09;;;;;;;1.03;1.03;;;3.70;99.90;;;;;;5082860;28;20219;-55
2022/01/22 10:32:01;;;;;;;1.10;1.10;;;3.80;99.90;;;;;;5084528;28;20296;-49
2022/01/22 10:34:45;;;;;;;0.80;0.80;;;3.80;99.90;;;;;;5084951;28;20193;-51
2022/01/22 10:37:30;;;;;;;1.50;0.90;;;3.70;99.90;;;;;;5082501;28;20212;-55
2022/01/22 10:40:29;;;;;;;1.13;1.13;;;3.60;99.90;;;;;;5085109;28;20224;-56
2022/01/22 10:43:30;;;;;;;1.17;1.17;;;3.70;99.90;;;;;;5083648;28;20225;-54
2022/01/22 10:49:08;;;;;;;0.73;0.73;;;3.70;99.90;;;;;;5085804;28;20220;-55
2022/01/22 10:52:02;;;;;;;1.77;1.27;;;3.70;99.90;;;;;;5083788;28;20301;-54
2022/01/22 10:54:47;;;;;;;1.07;1.07;;;3.60;99.90;;;;;;5080846;28;20290;-56
2022/01/22 10:57:31;;;;;;;1.40;0.97;;;3.60;99.90;;;;;;5084400;28;20192;-53
2022/01/22 11:00:21;;;;;;;0.43;0.43;;;3.70;99.90;;;;;;5082290;28;20288;-53
2022/01/22 11:03:22;;;;;;;0.93;0.73;;;3.80;99.90;;;;;;5081588;28;20224;-57
2022/01/22 11:06:25;;;;;;;0.80;0.80;;;3.80;99.90;;;;;;5084473;28;20249;-49
2022/01/22 11:09:10;;;;;;;1.20;1.10;;;3.80;99.90;;;;;;5083180;28;20204;-49
2022/01/22 11:11:55;;;;;;;0.93;0.70;;;3.90;99.90;;;;;;5081551;28;20185;-57
2022/01/22 11:14:42;;;;;;;1.67;1.23;;;3.90;99.90;;;;;;5084113;28;20231;-48
2022/01/22 11:17:32;;;;;;;1.27;1.20;;;3.90;99.90;;;;;;5082721;28;20204;-50
2022/01/22 11:20:16;;;;;;;1.53;1.43;;;3.80;99.90;;;;;;5081421;28;20271;-53
2022/01/22 11:23:02;;;;;;;1.13;1.03;;;3.70;99.90;;;;;;5083742;28;20256;-54
2022/01/22 11:25:47;;;;;;;1.30;1.17;;;3.80;99.90;;;;;;5081056;28;20269;-60
2022/01/22 11:28:31;;;;;;;1.30;1.17;;;3.70;99.90;;;;;;5082468;28;20200;-59
2022/01/22 11:31:17;;;;;;;1.00;1.00;;;3.70;99.90;;;;;;5083340;28;20216;-59
2022/01/22 11:34:03;;;;;;;1.00;1.00;;;3.80;99.90;;;;;;5081283;28;20220;-50
2022/01/22 11:37:10;;;;;;;1.77;1.00;;;3.80;99.90;;;;;;5083136;28;20197;-57
2022/01/22 11:40:24;;;;;;;1.43;0.87;;;3.80;99.90;;;;;;5083244;28;20264;-57
2022/01/22 11:43:20;;;;;;;2.03;1.33;;;3.80;99.90;;;;;;5081427;28;20278;-60
2022/01/22 11:46:26;;;;;;;1.07;1.07;;;3.80;99.90;;;;;;5081393;28;20383;-48
2022/01/22 11:49:16;;;;;;;0.70;0.70;;;3.90;99.90;;;;;;5084349;28;20247;-57
2022/01/22 11:52:13;;;;;;;1.10;0.93;;;3.90;99.90;;;;;;5081939;28;20193;-55
2022/01/22 11:55:10;;;;;;;1.10;1.10;;;3.80;99.90;;;;;;5081045;28;20225;-57
2022/01/22 11:58:06;;;;;;;1.50;1.50;;;3.80;99.90;;;;;;5084162;28;20208;-60
2022/01/22 12:00:51;;;;;;;1.90;0.83;;;3.90;99.90;;;;;;5082420;28;20235;-59
2022/01/22 12:03:35;;;;;;;1.23;1.23;;;3.80;99.90;;;;;;5081123;28;20228;-49
2022/01/22 12:06:19;;;;;;;1.20;1.20;;;3.90;99.90;;;;;;5084027;28;20227;-60
2022/01/22 12:09:13;;;;;;;0.90;0.90;;;3.90;99.90;;;;;;5080804;28;20216;-60
2022/01/22 12:15:49;;;;;;;1.53;1.43;;;3.90;99.90;;;;;;5088514;28;20247;-53
2022/01/22 12:18:43;;;;;;;1.30;1.20;;;4.00;99.90;;;;;;5086700;28;20244;-59
2022/01/22 12:21:34;;;;;;;0.73;0.73;;;4.00;99.90;;;;;;5083929;28;20248;-52
2022/01/22 12:24:31;;;;;;;1.23;1.23;;;3.80;99.90;;;;;;5087028;28;20238;-54
2022/01/22 12:27:47;;;;;;;1.73;1.20;;;3.70;99.90;;;;;;5086387;28;20232;-55
2022/01/22 12:30:43;;;;;;;1.27;1.17;;;3.80;99.90;;;;;;5081182;28;20205;-49
2022/01/22 12:33:28;;;;;;;1.47;1.20;;;3.80;99.90;;;;;;5085482;28;20358;-48
2022/01/22 12:36:18;;;;;;;1.03;0.87;;;3.90;99.90;;;;;;5085911;28;20188;-52
2022/01/22 12:39:09;;;;;;;1.33;0.73;;;3.80;99.90;;;;;;5083910;28;20370;-51
2022/01/22 12:41:57;;;;;;;1.50;1.40;;;3.80;99.90;;;;;;5085971;28;20235;-47
2022/01/22 12:44:50;;;;;;;1.77;0.67;;;3.80;99.90;;;;;;5085913;28;20196;-52
2022/01/22 12:47:37;;;;;;;1.10;1.10;;;3.80;99.90;;;;;;5084341;28;20220;-53
2022/01/22 12:50:27;;;;;;;1.00;1.00;;;3.80;99.90;;;;;;5086497;28;20331;-52
2022/01/22 12:53:13;;;;;;;2.73;1.40;;;3.70;99.90;;;;;;5085340;28;20545;-57
2022/01/22 12:58:45;;;;;;;1.47;1.33;;;3.70;99.90;;;;;;5087479;28;20251;-60
2022/01/22 13:01:31;;;;;;;1.70;1.40;;;3.70;99.90;;;;;;5085672;28;20251;-61
2022/01/22 13:04:16;;;;;;;1.73;1.50;;;3.70;99.90;;;;;;5085021;28;20200;-54
2022/01/22 13:07:01;;;;;;;1.37;1.27;;;3.70;99.90;;;;;;5087097;28;20196;-55
2022/01/22 13:09:51;;;;;;;1.70;1.60;;;3.70;99.90;;;;;;5085018;28;20208;-53
2022/01/22 13:12:37;;;;;;;0.90;0.90;;;3.70;99.90;;;;;;5085116;28;20241;-56
2022/01/22 13:15:23;;;;;;;1.43;1.33;;;3.70;99.90;;;;;;5086252;28;20250;-53
2022/01/22 13:18:07;;;;;;;1.53;1.43;;;3.80;99.90;;;;;;5084001;28;20200;-55
2022/01/22 13:20:52;;;;;;;1.60;1.50;;;3.80;99.90;;;;;;5084961;28;20280;-53
2022/01/22 13:23:37;;;;;;;1.03;0.80;;;3.80;99.90;;;;;;5084869;28;20334;-56
2022/01/22 13:26:38;;;;;;;3.93;1.33;;;3.90;99.90;;;;;;5083577;28;20196;-49
2022/01/22 13:29:39;;;;;;;0.73;0.60;;;3.90;99.90;;;;;;5085284;28;20220;-57
2022/01/22 13:32:47;;;;;;;1.33;1.27;;;3.90;99.90;;;;;;5085273;28;20201;-56
2022/01/22 13:50:11;;;;;;;1.50;1.20;;;3.80;99.90;;;;;;5087052;28;20249;-59
2022/01/22 13:52:56;;;;;;;1.80;1.20;;;3.90;99.90;;;;;;5083609;28;20201;-57
2022/01/22 13:55:41;;;;;;;1.53;1.43;;;3.90;99.90;;;;;;5084331;28;20297;-55
2022/01/22 13:58:26;;;;;;;0.93;0.90;;;3.90;99.90;;;;;;5085374;28;20189;-56
2022/01/22 14:01:31;;;;;;;1.40;1.30;;;3.80;99.90;;;;;;5081602;28;20247;-53
2022/01/22 14:04:17;;;;;;;1.10;1.00;;;3.80;99.90;;;;;;5084645;28;20315;-51
2022/01/22 14:07:17;;;;;;;0.90;0.90;;;3.80;99.90;;;;;;5085020;28;20209;-59
2022/01/22 14:10:12;;;;;;;0.90;0.90;;;3.80;99.90;;;;;;5082022;28;20247;-54
2022/01/22 14:13:07;;;;;;;1.03;0.83;;;3.80;99.90;;;;;;5083216;28;20629;-55
2022/01/22 14:15:51;;;;;;;1.50;1.33;;;3.80;99.90;;;;;;5084484;28;20205;-52
2022/01/22 14:18:40;;;;;;;1.10;1.00;;;3.80;99.90;;;;;;5082169;28;20204;-49
2022/01/22 14:21:26;;;;;;;1.03;1.03;;;3.80;99.90;;;;;;5084403;28;20220;-51
2022/01/22 14:24:12;;;;;;;0.83;0.83;;;3.80;99.90;;;;;;5084210;28;20192;-53
2022/01/22 14:26:56;;;;;;;1.67;1.13;;;3.80;99.90;;;;;;5081657;28;20204;-52
2022/01/22 14:29:44;;;;;;;2.17;1.40;;;3.80;99.90;;;;;;5084880;28;20193;-57
2022/01/22 14:32:30;;;;;;;1.00;1.00;;;3.80;99.90;;;;;;5084113;28;20221;-59
2022/01/22 14:35:21;;;;;;;1.97;1.53;;;3.80;99.90;;;;;;5081733;28;20208;-57
2022/01/22 14:38:22;;;;;;;0.70;0.70;;;3.80;99.90;;;;;;5084717;28;20212;-53
2022/01/22 14:44:28;;;;;;;0.57;0.57;;;3.80;99.90;;;;;;5083010;28;20277;-51
2022/01/22 14:47:16;;;;;;;1.03;0.87;;;3.80;99.90;;;;;;5084447;28;20184;-47
2022/01/22 14:50:06;;;;;;;2.87;0.97;;;3.80;99.90;;;;;;5083593;28;20204;-54
2022/01/22 14:52:55;;;;;;;0.80;0.73;;;3.70;99.90;;;;;;5081685;28;20299;-51
2022/01/22 14:55:49;;;;;;;0.93;0.77;;;3.70;99.90;;;;;;5084732;28;20193;-56
2022/01/22 14:58:33;;;;;;;1.03;0.90;;;3.80;99.90;;;;;;5083517;28;20211;-54
2022/01/22 15:01:17;;;;;;;0.77;0.77;;;3.80;99.90;;;;;;5081724;28;20188;-49
2022/01/22 15:04:01;;;;;;;0.90;0.90;;;3.80;99.90;;;;;;5084866;28;20196;-57
2022/01/22 15:06:49;;;;;;;0.97;0.80;;;3.80;99.90;;;;;;5081700;28;20196;-54
2022/01/22 15:09:36;;;;;;;1.33;0.87;;;3.80;99.90;;;;;;5082297;28;20196;-59
2022/01/22 15:12:21;;;;;;;1.80;1.27;;;3.80;99.90;;;;;;5083679;28;20192;-57
2022/01/22 15:15:06;;;;;;;1.10;1.10;;;3.80;99.90;;;;;;5081192;28;20193;-55
2022/01/22 15:18:06;;;;;;;0.50;0.50;;;3.80;99.90;;;;;;5082884;28;20213;-48
2022/01/22 15:20:51;;;;;;;0.70;0.53;;;3.80;99.90;;;;;;5083820;28;20661;-59
2022/01/22 15:23:38;;;;;;;0.73;0.73;;;3.80;99.90;;;;;;5081099;28;20197;-60
2022/01/22 15:26:23;;;;;;;0.80;0.80;;;3.80;99.90;;;;;;5083939;28;20254;-55
2022/01/22 15:29:11;;;;;;;0.60;0.60;;;3.80;99.90;;;;;;5083419;28;20201;-57
2022/01/22 15:34:54;;;;;;;0.53;0.50;;;3.80;99.90;;;;;;5086265;28;20192;-53
2022/01/22 15:37:47;;;;;;;0.80;0.80;;;3.80;99.90;;;;;;5083297;28;20200;-61
2022/01/22 15:40:33;;;;;;;1.53;0.93;;;3.70;99.90;;;;;;5081694;28;20205;-55
2022/01/22 15:43:17;;;;;;;0.50;0.50;;;3.70;99.90;;;;;;5084482;28;20262;-53
2022/01/22 15:46:02;;;;;;;1.60;0.97;;;3.70;99.90;;;;;;5083253;28;20282;-58
2022/01/22 15:48:47;;;;;;;1.07;0.33;;;3.70;99.90;;;;;;5085667;28;20319;-58
2022/01/22 15:51:32;;;;;;;0.43;0.43;;;3.70;99.90;;;;;;5088063;28;20211;-59
2022/01/22 15:54:17;;;;;;;0.67;0.63;;;3.70;99.90;;;;;;5085201;28;20193;-53
2022/01/22 15:57:05;;;;;;;1.57;0.47;;;3.70;99.90;;;;;;5086676;28;20255;-59
2022/01/22 15:59:49;;;;;;;1.80;0.63;;;3.70;99.90;;;;;;5087639;28;20188;-61
2022/01/22 16:02:36;;;;;;;0.87;0.40;;;3.70;99.90;;;;;;5083830;28;20232;-57
2022/01/22 16:05:25;;;;;;;0.57;0.40;;;3.70;99.90;;;;;;5087498;28;20185;-59
2022/01/22 16:08:09;;;;;;;0.90;0.90;;;3.70;99.90;;;;;;5086527;28;20214;-59
2022/01/22 16:10:54;;;;;;;0.30;0.27;;;3.70;99.90;;;;;;5084236;28;20255;-60
2022/01/22 16:13:38;;;;;;;1.70;0.63;;;3.60;99.90;;;;;;5087477;28;20224;-51
2022/01/22 16:16:23;;;;;;;0.93;0.93;;;3.70;99.90;;;;;;5085985;28;20192;-60
2022/01/22 16:19:09;;;;;;;1.33;1.20;;;3.60;99.90;;;;;;5085291;28;20200;-59
2022/01/22 16:21:55;;;;;;;0.40;0.37;;;3.60;99.90;;;;;;5087112;28;20228;-60